Terminal Aerodrome Forecast
Issued by NWS

Home | Current Version | Previous Version | Text Only | Print | Product List | Glossary On
Versions: 1 2 3 4 5 6 7 8 9 10 11 12 13 14 15 16 17 18 19 20 21 22 23 24 25 26 27 28 29 30
000
FTUS43 KLOT 282200 AAB
TAFDPA
TAF AMD
KDPA 282202Z 2822/2918 07010KT P6SM SCT080 BKN200
     FM290000 09008KT P6SM -SHRA SCT050 BKN070 OVC150
     FM290400 13007KT P6SM SCT050 BKN080
     FM290900 16007KT P6SM SHRA OVC050 PROB30 2910/2913 TSRA
      OVC040CB
     FM291400 19008KT P6SM BKN050
     FM291700 20013G20KT P6SM SCT060 BKN200=

USA.gov is the U.S. government's official web portal to all federal, state and local government web resources and services.